Aviation Digital Data Service (ADDS)

Output produced by TAFs form (0155 UTC 28 February 2015)
found at http://www.aviationweather.gov/adds/tafs/
 
KDEN 280053Z 33009KT 10SM SCT050 BKN090 M11/M15 A2990 RMK AO2 SLP208 T11111150
KDEN 272339Z 2800/0106 32009KT P6SM FEW060 FEW120 SCT220 
     FM280200 25007KT P6SM FEW060 FEW120 SCT220 
     FM280400 19010KT P6SM FEW040 SCT060 BKN120 
     FM280800 24007KT P6SM FEW035 SCT070 BKN100 
     FM281100 28006KT P6SM FEW005 SCT100 
     FM281300 33006KT P6SM VCFG BKN005 
     FM281600 VRB05KT P6SM SCT005 
     FM282000 04005KT P6SM VCSH FEW008 SCT025 OVC040 
     FM010000 08007KT 2SM -SN BR BKN008 OVC015